sensor_id;sensor_type;location;lat;lon;timestamp;P1;durP1;ratioP1;P2;durP2;ratioP2
20758;SDS011;10539;53.686;9.158;2023-05-10T00:00:13;2.47;;;1.77;;
20758;SDS011;10539;53.686;9.158;2023-05-10T00:02:40;4.10;;;1.97;;
20758;SDS011;10539;53.686;9.158;2023-05-10T00:05:06;6.00;;;2.30;;
20758;SDS011;10539;53.686;9.158;2023-05-10T00:07:32;4.07;;;2.00;;
20758;SDS011;10539;53.686;9.158;2023-05-10T00:09:57;3.60;;;2.20;;
20758;SDS011;10539;53.686;9.158;2023-05-10T00:12:23;3.23;;;1.73;;
20758;SDS011;10539;53.686;9.158;2023-05-10T00:14:49;2.67;;;1.80;;
20758;SDS011;10539;53.686;9.158;2023-05-10T00:17:15;2.23;;;1.83;;
20758;SDS011;10539;53.686;9.158;2023-05-10T00:19:40;2.57;;;1.90;;
20758;SDS011;10539;53.686;9.158;2023-05-10T00:22:06;8.40;;;2.40;;
20758;SDS011;10539;53.686;9.158;2023-05-10T00:24:32;5.40;;;2.13;;
20758;SDS011;10539;53.686;9.158;2023-05-10T00:26:58;9.77;;;2.40;;
20758;SDS011;10539;53.686;9.158;2023-05-10T00:29:23;6.43;;;3.00;;
20758;SDS011;10539;53.686;9.158;2023-05-10T00:31:49;3.73;;;2.03;;
20758;SDS011;10539;53.686;9.158;2023-05-10T00:34:15;7.13;;;2.70;;
20758;SDS011;10539;53.686;9.158;2023-05-10T00:36:41;3.10;;;2.10;;
20758;SDS011;10539;53.686;9.158;2023-05-10T00:39:06;3.40;;;2.37;;
20758;SDS011;10539;53.686;9.158;2023-05-10T00:41:33;5.17;;;2.40;;
20758;SDS011;10539;53.686;9.158;2023-05-10T00:43:58;2.77;;;2.00;;
20758;SDS011;10539;53.686;9.158;2023-05-10T00:46:24;7.53;;;2.20;;
20758;SDS011;10539;53.686;9.158;2023-05-10T00:48:50;2.73;;;1.77;;
20758;SDS011;10539;53.686;9.158;2023-05-10T00:51:17;4.13;;;1.93;;
20758;SDS011;10539;53.686;9.158;2023-05-10T00:53:44;3.43;;;2.07;;
20758;SDS011;10539;53.686;9.158;2023-05-10T00:56:11;3.43;;;1.90;;
20758;SDS011;10539;53.686;9.158;2023-05-10T00:58:37;8.47;;;2.20;;
20758;SDS011;10539;53.686;9.158;2023-05-10T01:01:04;5.60;;;2.20;;
20758;SDS011;10539;53.686;9.158;2023-05-10T01:03:31;2.73;;;2.00;;
20758;SDS011;10539;53.686;9.158;2023-05-10T01:05:57;4.97;;;2.10;;
20758;SDS011;10539;53.686;9.158;2023-05-10T01:08:23;3.13;;;2.30;;
20758;SDS011;10539;53.686;9.158;2023-05-10T01:10:50;3.23;;;2.10;;
20758;SDS011;10539;53.686;9.158;2023-05-10T01:13:33;4.87;;;2.20;;
20758;SDS011;10539;53.686;9.158;2023-05-10T01:16:04;3.73;;;2.30;;
20758;SDS011;10539;53.686;9.158;2023-05-10T01:18:33;6.63;;;2.27;;
20758;SDS011;10539;53.686;9.158;2023-05-10T01:21:06;4.20;;;2.50;;
20758;SDS011;10539;53.686;9.158;2023-05-10T01:32:22;3.53;;;2.20;;
20758;SDS011;10539;53.686;9.158;2023-05-10T01:35:00;5.23;;;2.37;;
20758;SDS011;10539;53.686;9.158;2023-05-10T01:37:41;3.83;;;2.03;;
20758;SDS011;10539;53.686;9.158;2023-05-10T01:40:17;4.83;;;2.40;;
20758;SDS011;10539;53.686;9.158;2023-05-10T01:42:54;3.67;;;2.30;;
20758;SDS011;10539;53.686;9.158;2023-05-10T01:45:53;5.00;;;2.40;;
20758;SDS011;10539;53.686;9.158;2023-05-10T01:48:23;3.93;;;2.20;;
20758;SDS011;10539;53.686;9.158;2023-05-10T01:50:52;4.87;;;2.63;;
20758;SDS011;10539;53.686;9.158;2023-05-10T01:53:19;2.87;;;2.10;;
20758;SDS011;10539;53.686;9.158;2023-05-10T01:55:47;3.03;;;2.00;;
20758;SDS011;10539;53.686;9.158;2023-05-10T01:58:20;3.87;;;2.77;;
20758;SDS011;10539;53.686;9.158;2023-05-10T02:00:50;4.40;;;2.07;;
20758;SDS011;10539;53.686;9.158;2023-05-10T02:03:17;3.57;;;2.33;;
20758;SDS011;10539;53.686;9.158;2023-05-10T02:05:46;5.57;;;2.50;;
20758;SDS011;10539;53.686;9.158;2023-05-10T02:08:14;7.03;;;2.63;;
20758;SDS011;10539;53.686;9.158;2023-05-10T02:10:42;7.13;;;2.70;;
20758;SDS011;10539;53.686;9.158;2023-05-10T02:13:10;4.10;;;2.70;;
20758;SDS011;10539;53.686;9.158;2023-05-10T02:15:37;5.57;;;2.90;;
20758;SDS011;10539;53.686;9.158;2023-05-10T02:18:05;3.83;;;2.63;;
20758;SDS011;10539;53.686;9.158;2023-05-10T02:20:32;6.57;;;2.70;;
20758;SDS011;10539;53.686;9.158;2023-05-10T02:22:58;4.40;;;2.50;;
20758;SDS011;10539;53.686;9.158;2023-05-10T02:25:25;4.27;;;2.50;;
20758;SDS011;10539;53.686;9.158;2023-05-10T02:27:54;5.07;;;2.60;;
20758;SDS011;10539;53.686;9.158;2023-05-10T02:30:22;4.20;;;2.80;;
20758;SDS011;10539;53.686;9.158;2023-05-10T02:32:48;5.80;;;2.70;;
20758;SDS011;10539;53.686;9.158;2023-05-10T02:35:16;6.13;;;2.37;;
20758;SDS011;10539;53.686;9.158;2023-05-10T02:37:42;4.63;;;2.50;;
20758;SDS011;10539;53.686;9.158;2023-05-10T02:40:10;4.80;;;2.70;;
20758;SDS011;10539;53.686;9.158;2023-05-10T02:42:37;4.30;;;2.60;;
20758;SDS011;10539;53.686;9.158;2023-05-10T02:45:08;3.47;;;2.60;;
20758;SDS011;10539;53.686;9.158;2023-05-10T02:47:37;5.00;;;2.80;;
20758;SDS011;10539;53.686;9.158;2023-05-10T02:50:03;3.97;;;2.50;;
20758;SDS011;10539;53.686;9.158;2023-05-10T02:52:30;6.93;;;3.00;;
20758;SDS011;10539;53.686;9.158;2023-05-10T02:55:11;4.37;;;2.40;;
20758;SDS011;10539;53.686;9.158;2023-05-10T02:57:46;3.67;;;2.77;;
20758;SDS011;10539;53.686;9.158;2023-05-10T03:00:16;4.20;;;2.57;;
20758;SDS011;10539;53.686;9.158;2023-05-10T03:02:42;3.30;;;2.50;;
20758;SDS011;10539;53.686;9.158;2023-05-10T03:05:08;3.50;;;2.63;;
20758;SDS011;10539;53.686;9.158;2023-05-10T03:07:34;7.03;;;3.17;;
20758;SDS011;10539;53.686;9.158;2023-05-10T03:10:00;4.50;;;3.20;;
20758;SDS011;10539;53.686;9.158;2023-05-10T03:18:23;4.57;;;3.17;;
20758;SDS011;10539;53.686;9.158;2023-05-10T03:20:57;4.97;;;2.73;;
20758;SDS011;10539;53.686;9.158;2023-05-10T03:23:35;5.83;;;3.27;;
20758;SDS011;10539;53.686;9.158;2023-05-10T03:26:26;4.03;;;2.90;;
20758;SDS011;10539;53.686;9.158;2023-05-10T03:28:53;5.33;;;3.27;;
20758;SDS011;10539;53.686;9.158;2023-05-10T03:31:23;4.17;;;2.97;;
20758;SDS011;10539;53.686;9.158;2023-05-10T03:33:49;5.83;;;3.30;;
20758;SDS011;10539;53.686;9.158;2023-05-10T03:36:16;6.93;;;3.73;;
20758;SDS011;10539;53.686;9.158;2023-05-10T03:38:42;5.37;;;2.87;;
20758;SDS011;10539;53.686;9.158;2023-05-10T03:41:08;4.13;;;2.80;;
20758;SDS011;10539;53.686;9.158;2023-05-10T03:43:33;4.27;;;2.90;;
20758;SDS011;10539;53.686;9.158;2023-05-10T03:46:01;9.57;;;2.87;;
20758;SDS011;10539;53.686;9.158;2023-05-10T03:48:28;4.30;;;2.97;;
20758;SDS011;10539;53.686;9.158;2023-05-10T03:50:54;4.67;;;3.30;;
20758;SDS011;10539;53.686;9.158;2023-05-10T03:53:19;5.40;;;2.93;;
20758;SDS011;10539;53.686;9.158;2023-05-10T03:55:45;6.50;;;3.50;;
20758;SDS011;10539;53.686;9.158;2023-05-10T03:58:11;3.77;;;3.07;;
20758;SDS011;10539;53.686;9.158;2023-05-10T04:00:37;6.00;;;3.37;;
20758;SDS011;10539;53.686;9.158;2023-05-10T04:03:08;5.57;;;2.80;;
20758;SDS011;10539;53.686;9.158;2023-05-10T04:05:35;7.40;;;3.23;;
20758;SDS011;10539;53.686;9.158;2023-05-10T04:08:01;8.77;;;3.37;;
20758;SDS011;10539;53.686;9.158;2023-05-10T04:10:27;5.30;;;3.60;;
20758;SDS011;10539;53.686;9.158;2023-05-10T04:12:53;6.13;;;3.17;;
20758;SDS011;10539;53.686;9.158;2023-05-10T04:15:19;5.17;;;3.23;;
20758;SDS011;10539;53.686;9.158;2023-05-10T04:17:45;5.20;;;3.00;;
20758;SDS011;10539;53.686;9.158;2023-05-10T04:20:12;4.80;;;3.43;;
20758;SDS011;10539;53.686;9.158;2023-05-10T04:22:38;4.93;;;3.30;;
20758;SDS011;10539;53.686;9.158;2023-05-10T04:25:04;6.00;;;3.50;;
20758;SDS011;10539;53.686;9.158;2023-05-10T04:27:30;5.87;;;3.30;;
20758;SDS011;10539;53.686;9.158;2023-05-10T04:29:56;4.20;;;2.97;;
20758;SDS011;10539;53.686;9.158;2023-05-10T04:32:22;7.47;;;3.47;;
20758;SDS011;10539;53.686;9.158;2023-05-10T04:34:48;3.50;;;2.97;;
20758;SDS011;10539;53.686;9.158;2023-05-10T04:37:15;7.97;;;3.30;;
20758;SDS011;10539;53.686;9.158;2023-05-10T04:39:41;5.13;;;3.17;;
20758;SDS011;10539;53.686;9.158;2023-05-10T04:42:07;4.87;;;3.40;;
20758;SDS011;10539;53.686;9.158;2023-05-10T04:44:33;6.90;;;3.37;;
20758;SDS011;10539;53.686;9.158;2023-05-10T04:46:59;4.30;;;3.27;;
20758;SDS011;10539;53.686;9.158;2023-05-10T04:49:24;5.27;;;3.17;;
20758;SDS011;10539;53.686;9.158;2023-05-10T04:51:50;5.23;;;3.40;;
20758;SDS011;10539;53.686;9.158;2023-05-10T04:54:16;8.37;;;3.70;;
20758;SDS011;10539;53.686;9.158;2023-05-10T04:56:42;7.97;;;3.43;;
20758;SDS011;10539;53.686;9.158;2023-05-10T04:59:07;5.37;;;3.17;;
20758;SDS011;10539;53.686;9.158;2023-05-10T05:01:33;6.40;;;3.30;;
20758;SDS011;10539;53.686;9.158;2023-05-10T05:03:59;7.60;;;3.43;;
20758;SDS011;10539;53.686;9.158;2023-05-10T05:06:25;5.70;;;3.27;;
20758;SDS011;10539;53.686;9.158;2023-05-10T05:08:52;5.33;;;3.07;;
20758;SDS011;10539;53.686;9.158;2023-05-10T05:11:18;6.57;;;3.30;;
20758;SDS011;10539;53.686;9.158;2023-05-10T05:13:44;5.10;;;3.17;;
20758;SDS011;10539;53.686;9.158;2023-05-10T05:16:10;5.57;;;3.60;;
20758;SDS011;10539;53.686;9.158;2023-05-10T05:18:36;8.60;;;3.75;;
20758;SDS011;10539;53.686;9.158;2023-05-10T05:21:02;5.00;;;3.50;;
20758;SDS011;10539;53.686;9.158;2023-05-10T05:23:28;8.33;;;3.47;;
20758;SDS011;10539;53.686;9.158;2023-05-10T05:25:54;7.83;;;3.67;;
20758;SDS011;10539;53.686;9.158;2023-05-10T05:28:20;5.30;;;3.43;;
20758;SDS011;10539;53.686;9.158;2023-05-10T05:30:46;6.90;;;3.53;;
20758;SDS011;10539;53.686;9.158;2023-05-10T05:33:15;8.57;;;3.50;;
20758;SDS011;10539;53.686;9.158;2023-05-10T05:35:41;6.93;;;3.77;;
20758;SDS011;10539;53.686;9.158;2023-05-10T05:38:09;5.63;;;3.43;;
20758;SDS011;10539;53.686;9.158;2023-05-10T05:40:35;6.53;;;3.37;;
20758;SDS011;10539;53.686;9.158;2023-05-10T05:43:01;7.20;;;3.50;;
20758;SDS011;10539;53.686;9.158;2023-05-10T05:45:27;8.67;;;3.67;;
20758;SDS011;10539;53.686;9.158;2023-05-10T05:47:52;6.40;;;3.73;;
20758;SDS011;10539;53.686;9.158;2023-05-10T05:50:18;6.40;;;3.27;;
20758;SDS011;10539;53.686;9.158;2023-05-10T05:52:44;6.13;;;3.40;;
20758;SDS011;10539;53.686;9.158;2023-05-10T05:55:09;8.90;;;3.90;;
20758;SDS011;10539;53.686;9.158;2023-05-10T05:57:35;4.10;;;3.30;;
20758;SDS011;10539;53.686;9.158;2023-05-10T06:00:01;5.20;;;3.60;;
20758;SDS011;10539;53.686;9.158;2023-05-10T06:02:29;6.13;;;3.97;;
20758;SDS011;10539;53.686;9.158;2023-05-10T06:04:55;4.83;;;3.60;;
20758;SDS011;10539;53.686;9.158;2023-05-10T06:07:20;7.53;;;3.63;;
20758;SDS011;10539;53.686;9.158;2023-05-10T06:09:46;5.13;;;3.47;;
20758;SDS011;10539;53.686;9.158;2023-05-10T06:12:12;6.03;;;3.60;;
20758;SDS011;10539;53.686;9.158;2023-05-10T06:14:38;6.50;;;3.43;;
20758;SDS011;10539;53.686;9.158;2023-05-10T06:17:03;6.00;;;3.77;;
20758;SDS011;10539;53.686;9.158;2023-05-10T06:19:30;11.53;;;4.20;;
20758;SDS011;10539;53.686;9.158;2023-05-10T06:21:55;11.00;;;4.60;;
20758;SDS011;10539;53.686;9.158;2023-05-10T06:24:21;5.17;;;4.23;;
20758;SDS011;10539;53.686;9.158;2023-05-10T06:26:47;6.00;;;3.63;;
20758;SDS011;10539;53.686;9.158;2023-05-10T06:29:15;10.47;;;3.97;;
20758;SDS011;10539;53.686;9.158;2023-05-10T06:31:40;4.53;;;3.50;;
20758;SDS011;10539;53.686;9.158;2023-05-10T06:34:06;5.80;;;3.93;;
20758;SDS011;10539;53.686;9.158;2023-05-10T06:36:33;4.53;;;3.40;;
20758;SDS011;10539;53.686;9.158;2023-05-10T06:38:59;6.30;;;3.80;;
20758;SDS011;10539;53.686;9.158;2023-05-10T06:41:24;5.10;;;3.77;;
20758;SDS011;10539;53.686;9.158;2023-05-10T06:43:50;5.77;;;3.80;;
20758;SDS011;10539;53.686;9.158;2023-05-10T06:46:16;4.80;;;3.90;;
20758;SDS011;10539;53.686;9.158;2023-05-10T06:48:42;7.43;;;3.90;;
20758;SDS011;10539;53.686;9.158;2023-05-10T06:51:07;6.77;;;3.53;;
20758;SDS011;10539;53.686;9.158;2023-05-10T06:53:33;5.70;;;4.00;;
20758;SDS011;10539;53.686;9.158;2023-05-10T06:55:59;7.27;;;4.07;;
20758;SDS011;10539;53.686;9.158;2023-05-10T06:58:25;7.67;;;4.40;;
20758;SDS011;10539;53.686;9.158;2023-05-10T07:00:51;6.00;;;3.83;;
20758;SDS011;10539;53.686;9.158;2023-05-10T07:03:16;5.33;;;3.70;;
20758;SDS011;10539;53.686;9.158;2023-05-10T07:05:42;5.27;;;4.27;;
20758;SDS011;10539;53.686;9.158;2023-05-10T07:08:08;8.90;;;4.30;;
20758;SDS011;10539;53.686;9.158;2023-05-10T07:10:34;8.40;;;4.40;;
20758;SDS011;10539;53.686;9.158;2023-05-10T07:12:59;10.67;;;4.17;;
20758;SDS011;10539;53.686;9.158;2023-05-10T07:15:26;7.87;;;4.63;;
20758;SDS011;10539;53.686;9.158;2023-05-10T07:17:52;7.30;;;4.47;;
20758;SDS011;10539;53.686;9.158;2023-05-10T07:20:17;6.83;;;4.50;;
20758;SDS011;10539;53.686;9.158;2023-05-10T07:22:43;5.33;;;4.10;;
20758;SDS011;10539;53.686;9.158;2023-05-10T07:25:09;7.97;;;4.33;;
20758;SDS011;10539;53.686;9.158;2023-05-10T07:27:35;7.83;;;5.00;;
20758;SDS011;10539;53.686;9.158;2023-05-10T07:30:01;5.67;;;4.77;;
20758;SDS011;10539;53.686;9.158;2023-05-10T07:32:27;7.20;;;4.57;;
20758;SDS011;10539;53.686;9.158;2023-05-10T07:34:53;7.40;;;5.13;;
20758;SDS011;10539;53.686;9.158;2023-05-10T07:37:19;7.40;;;5.50;;
20758;SDS011;10539;53.686;9.158;2023-05-10T07:39:45;6.50;;;5.13;;
20758;SDS011;10539;53.686;9.158;2023-05-10T07:42:10;8.07;;;5.10;;
20758;SDS011;10539;53.686;9.158;2023-05-10T07:44:36;7.20;;;5.60;;
20758;SDS011;10539;53.686;9.158;2023-05-10T07:47:02;6.87;;;5.27;;
20758;SDS011;10539;53.686;9.158;2023-05-10T07:49:28;8.37;;;5.73;;
20758;SDS011;10539;53.686;9.158;2023-05-10T07:51:54;10.23;;;5.90;;
20758;SDS011;10539;53.686;9.158;2023-05-10T07:54:19;7.73;;;5.63;;
20758;SDS011;10539;53.686;9.158;2023-05-10T07:56:45;7.87;;;5.43;;
20758;SDS011;10539;53.686;9.158;2023-05-10T07:59:15;10.13;;;5.73;;
20758;SDS011;10539;53.686;9.158;2023-05-10T08:01:42;10.00;;;5.90;;
20758;SDS011;10539;53.686;9.158;2023-05-10T08:04:08;7.60;;;5.47;;
20758;SDS011;10539;53.686;9.158;2023-05-10T08:06:34;8.13;;;5.63;;
20758;SDS011;10539;53.686;9.158;2023-05-10T08:09:00;9.30;;;6.13;;
20758;SDS011;10539;53.686;9.158;2023-05-10T08:11:26;9.33;;;5.87;;
20758;SDS011;10539;53.686;9.158;2023-05-10T08:13:53;8.90;;;6.30;;
20758;SDS011;10539;53.686;9.158;2023-05-10T08:16:19;9.37;;;6.40;;
20758;SDS011;10539;53.686;9.158;2023-05-10T08:18:45;8.70;;;6.20;;
20758;SDS011;10539;53.686;9.158;2023-05-10T08:21:12;10.03;;;6.60;;
20758;SDS011;10539;53.686;9.158;2023-05-10T08:23:38;8.13;;;6.13;;
20758;SDS011;10539;53.686;9.158;2023-05-10T08:26:04;8.97;;;6.30;;
20758;SDS011;10539;53.686;9.158;2023-05-10T08:28:30;9.73;;;6.30;;
20758;SDS011;10539;53.686;9.158;2023-05-10T08:30:56;11.27;;;6.90;;
20758;SDS011;10539;53.686;9.158;2023-05-10T08:33:22;8.77;;;6.33;;
20758;SDS011;10539;53.686;9.158;2023-05-10T08:35:48;9.37;;;7.10;;
20758;SDS011;10539;53.686;9.158;2023-05-10T08:38:14;10.03;;;7.50;;
20758;SDS011;10539;53.686;9.158;2023-05-10T08:40:43;10.47;;;7.40;;
20758;SDS011;10539;53.686;9.158;2023-05-10T08:43:12;11.83;;;7.60;;
20758;SDS011;10539;53.686;9.158;2023-05-10T08:45:42;10.10;;;7.50;;
20758;SDS011;10539;53.686;9.158;2023-05-10T08:48:10;11.23;;;7.57;;
20758;SDS011;10539;53.686;9.158;2023-05-10T08:50:39;10.73;;;8.03;;
20758;SDS011;10539;53.686;9.158;2023-05-10T08:53:06;10.50;;;7.23;;
20758;SDS011;10539;53.686;9.158;2023-05-10T08:55:36;11.57;;;7.93;;
20758;SDS011;10539;53.686;9.158;2023-05-10T08:58:04;12.00;;;8.20;;
20758;SDS011;10539;53.686;9.158;2023-05-10T09:00:30;11.47;;;8.03;;
20758;SDS011;10539;53.686;9.158;2023-05-10T09:03:00;11.33;;;7.70;;
20758;SDS011;10539;53.686;9.158;2023-05-10T09:05:26;12.93;;;7.80;;
20758;SDS011;10539;53.686;9.158;2023-05-10T09:07:52;9.37;;;7.33;;
20758;SDS011;10539;53.686;9.158;2023-05-10T09:10:19;12.03;;;8.43;;
20758;SDS011;10539;53.686;9.158;2023-05-10T09:12:45;13.40;;;8.50;;
20758;SDS011;10539;53.686;9.158;2023-05-10T09:15:14;13.20;;;8.70;;
20758;SDS011;10539;53.686;9.158;2023-05-10T09:17:41;12.60;;;8.27;;
20758;SDS011;10539;53.686;9.158;2023-05-10T09:20:09;13.23;;;8.40;;
20758;SDS011;10539;53.686;9.158;2023-05-10T09:22:35;10.40;;;8.10;;
20758;SDS011;10539;53.686;9.158;2023-05-10T09:25:08;11.47;;;8.80;;
20758;SDS011;10539;53.686;9.158;2023-05-10T09:27:36;12.53;;;8.87;;
20758;SDS011;10539;53.686;9.158;2023-05-10T09:30:03;10.10;;;8.20;;
20758;SDS011;10539;53.686;9.158;2023-05-10T09:32:40;12.33;;;8.63;;
20758;SDS011;10539;53.686;9.158;2023-05-10T09:35:09;12.93;;;9.10;;
20758;SDS011;10539;53.686;9.158;2023-05-10T09:37:36;11.77;;;8.93;;
20758;SDS011;10539;53.686;9.158;2023-05-10T09:40:07;12.33;;;8.80;;
20758;SDS011;10539;53.686;9.158;2023-05-10T09:42:36;12.23;;;7.57;;
20758;SDS011;10539;53.686;9.158;2023-05-10T09:45:03;11.37;;;9.10;;
20758;SDS011;10539;53.686;9.158;2023-05-10T09:47:36;12.43;;;9.73;;
20758;SDS011;10539;53.686;9.158;2023-05-10T09:50:02;11.67;;;9.10;;
20758;SDS011;10539;53.686;9.158;2023-05-10T09:52:51;14.23;;;8.87;;
20758;SDS011;10539;53.686;9.158;2023-05-10T09:55:17;11.70;;;9.03;;
20758;SDS011;10539;53.686;9.158;2023-05-10T09:57:45;12.83;;;9.10;;
20758;SDS011;10539;53.686;9.158;2023-05-10T10:00:21;12.13;;;9.43;;
20758;SDS011;10539;53.686;9.158;2023-05-10T10:02:47;12.17;;;9.53;;
20758;SDS011;10539;53.686;9.158;2023-05-10T10:05:19;11.70;;;8.57;;
20758;SDS011;10539;53.686;9.158;2023-05-10T10:07:45;14.13;;;10.80;;
20758;SDS011;10539;53.686;9.158;2023-05-10T10:10:11;11.73;;;8.80;;
20758;SDS011;10539;53.686;9.158;2023-05-10T10:12:38;10.37;;;8.27;;
20758;SDS011;10539;53.686;9.158;2023-05-10T10:15:06;9.57;;;7.97;;
20758;SDS011;10539;53.686;9.158;2023-05-10T10:17:33;11.17;;;8.93;;
20758;SDS011;10539;53.686;9.158;2023-05-10T10:20:02;11.27;;;8.33;;
20758;SDS011;10539;53.686;9.158;2023-05-10T10:22:28;10.23;;;8.53;;
20758;SDS011;10539;53.686;9.158;2023-05-10T10:24:54;10.40;;;7.60;;
20758;SDS011;10539;53.686;9.158;2023-05-10T10:27:28;10.33;;;8.07;;
20758;SDS011;10539;53.686;9.158;2023-05-10T10:33:17;10.70;;;8.40;;
20758;SDS011;10539;53.686;9.158;2023-05-10T10:36:11;12.20;;;9.27;;
20758;SDS011;10539;53.686;9.158;2023-05-10T10:49:24;14.83;;;10.07;;
20758;SDS011;10539;53.686;9.158;2023-05-10T10:54:38;11.50;;;9.17;;
20758;SDS011;10539;53.686;9.158;2023-05-10T10:57:13;11.97;;;8.97;;
20758;SDS011;10539;53.686;9.158;2023-05-10T10:59:43;11.93;;;9.93;;
20758;SDS011;10539;53.686;9.158;2023-05-10T11:02:09;13.23;;;10.10;;
20758;SDS011;10539;53.686;9.158;2023-05-10T11:04:41;13.23;;;10.60;;
20758;SDS011;10539;53.686;9.158;2023-05-10T11:07:18;13.67;;;10.17;;
20758;SDS011;10539;53.686;9.158;2023-05-10T11:09:46;14.37;;;11.00;;
20758;SDS011;10539;53.686;9.158;2023-05-10T11:12:12;13.13;;;10.17;;
20758;SDS011;10539;53.686;9.158;2023-05-10T11:14:38;13.67;;;10.50;;
20758;SDS011;10539;53.686;9.158;2023-05-10T11:17:21;15.70;;;10.97;;
20758;SDS011;10539;53.686;9.158;2023-05-10T11:20:09;15.13;;;11.20;;
20758;SDS011;10539;53.686;9.158;2023-05-10T11:22:48;14.33;;;11.10;;
20758;SDS011;10539;53.686;9.158;2023-05-10T11:25:18;15.97;;;12.07;;
20758;SDS011;10539;53.686;9.158;2023-05-10T11:27:46;13.07;;;11.00;;
20758;SDS011;10539;53.686;9.158;2023-05-10T11:30:13;15.10;;;11.07;;
20758;SDS011;10539;53.686;9.158;2023-05-10T11:32:40;12.63;;;10.67;;
20758;SDS011;10539;53.686;9.158;2023-05-10T11:35:09;13.30;;;11.03;;
20758;SDS011;10539;53.686;9.158;2023-05-10T11:37:37;13.63;;;11.17;;
20758;SDS011;10539;53.686;9.158;2023-05-10T11:40:08;13.47;;;10.40;;
20758;SDS011;10539;53.686;9.158;2023-05-10T11:42:38;13.60;;;11.30;;
20758;SDS011;10539;53.686;9.158;2023-05-10T11:45:04;13.63;;;10.90;;
20758;SDS011;10539;53.686;9.158;2023-05-10T11:47:31;13.07;;;11.10;;
20758;SDS011;10539;53.686;9.158;2023-05-10T11:49:57;12.53;;;10.93;;
20758;SDS011;10539;53.686;9.158;2023-05-10T11:52:23;13.60;;;10.80;;
20758;SDS011;10539;53.686;9.158;2023-05-10T11:54:52;11.23;;;9.57;;
20758;SDS011;10539;53.686;9.158;2023-05-10T11:57:18;12.43;;;9.90;;
20758;SDS011;10539;53.686;9.158;2023-05-10T11:59:46;11.07;;;9.87;;
20758;SDS011;10539;53.686;9.158;2023-05-10T12:02:15;13.33;;;10.30;;
20758;SDS011;10539;53.686;9.158;2023-05-10T12:04:41;12.77;;;10.33;;
20758;SDS011;10539;53.686;9.158;2023-05-10T12:07:07;13.17;;;10.50;;
20758;SDS011;10539;53.686;9.158;2023-05-10T12:09:32;14.27;;;10.53;;
20758;SDS011;10539;53.686;9.158;2023-05-10T12:11:58;13.60;;;10.50;;
20758;SDS011;10539;53.686;9.158;2023-05-10T12:14:24;13.50;;;11.23;;
20758;SDS011;10539;53.686;9.158;2023-05-10T12:16:50;12.83;;;10.87;;
20758;SDS011;10539;53.686;9.158;2023-05-10T12:19:19;14.30;;;11.00;;
20758;SDS011;10539;53.686;9.158;2023-05-10T12:21:48;13.70;;;11.03;;
20758;SDS011;10539;53.686;9.158;2023-05-10T12:24:14;13.40;;;11.00;;
20758;SDS011;10539;53.686;9.158;2023-05-10T12:26:43;13.37;;;10.47;;
20758;SDS011;10539;53.686;9.158;2023-05-10T12:29:19;12.97;;;11.00;;
20758;SDS011;10539;53.686;9.158;2023-05-10T12:31:49;12.60;;;10.33;;
20758;SDS011;10539;53.686;9.158;2023-05-10T12:34:23;11.27;;;9.50;;
20758;SDS011;10539;53.686;9.158;2023-05-10T12:36:54;12.30;;;10.23;;
20758;SDS011;10539;53.686;9.158;2023-05-10T12:39:20;13.50;;;10.33;;
20758;SDS011;10539;53.686;9.158;2023-05-10T12:41:46;13.57;;;10.47;;
20758;SDS011;10539;53.686;9.158;2023-05-10T12:44:11;12.53;;;10.67;;
20758;SDS011;10539;53.686;9.158;2023-05-10T12:46:37;13.07;;;10.53;;
20758;SDS011;10539;53.686;9.158;2023-05-10T12:49:03;12.77;;;10.73;;
20758;SDS011;10539;53.686;9.158;2023-05-10T12:51:29;12.43;;;10.70;;
20758;SDS011;10539;53.686;9.158;2023-05-10T12:53:55;12.30;;;10.57;;
20758;SDS011;10539;53.686;9.158;2023-05-10T12:56:21;13.07;;;10.87;;
20758;SDS011;10539;53.686;9.158;2023-05-10T12:58:47;14.70;;;10.83;;
20758;SDS011;10539;53.686;9.158;2023-05-10T13:01:13;14.30;;;11.50;;
20758;SDS011;10539;53.686;9.158;2023-05-10T13:03:39;12.97;;;11.07;;
20758;SDS011;10539;53.686;9.158;2023-05-10T13:06:05;15.17;;;11.60;;
20758;SDS011;10539;53.686;9.158;2023-05-10T13:08:31;15.33;;;11.00;;
20758;SDS011;10539;53.686;9.158;2023-05-10T13:11:01;13.73;;;11.13;;
20758;SDS011;10539;53.686;9.158;2023-05-10T13:13:28;13.53;;;11.47;;
20758;SDS011;10539;53.686;9.158;2023-05-10T13:15:54;12.80;;;10.80;;
20758;SDS011;10539;53.686;9.158;2023-05-10T13:18:20;11.30;;;10.10;;
20758;SDS011;10539;53.686;9.158;2023-05-10T13:20:45;12.20;;;10.00;;
20758;SDS011;10539;53.686;9.158;2023-05-10T13:23:11;11.87;;;10.00;;
20758;SDS011;10539;53.686;9.158;2023-05-10T13:25:37;13.10;;;10.67;;
20758;SDS011;10539;53.686;9.158;2023-05-10T13:28:03;13.20;;;9.67;;
20758;SDS011;10539;53.686;9.158;2023-05-10T13:30:28;12.37;;;9.73;;
20758;SDS011;10539;53.686;9.158;2023-05-10T13:32:54;12.20;;;9.37;;
20758;SDS011;10539;53.686;9.158;2023-05-10T13:35:20;11.77;;;9.47;;
20758;SDS011;10539;53.686;9.158;2023-05-10T13:37:46;12.27;;;9.80;;
20758;SDS011;10539;53.686;9.158;2023-05-10T13:40:11;11.23;;;9.47;;
20758;SDS011;10539;53.686;9.158;2023-05-10T13:42:38;13.10;;;10.03;;
20758;SDS011;10539;53.686;9.158;2023-05-10T13:45:04;14.87;;;10.90;;
20758;SDS011;10539;53.686;9.158;2023-05-10T13:47:31;11.60;;;9.27;;
20758;SDS011;10539;53.686;9.158;2023-05-10T13:49:57;8.90;;;6.83;;
20758;SDS011;10539;53.686;9.158;2023-05-10T13:52:23;9.00;;;6.60;;
20758;SDS011;10539;53.686;9.158;2023-05-10T13:54:49;6.30;;;5.40;;
20758;SDS011;10539;53.686;9.158;2023-05-10T13:57:17;5.30;;;4.33;;
20758;SDS011;10539;53.686;9.158;2023-05-10T13:59:43;5.57;;;4.70;;
20758;SDS011;10539;53.686;9.158;2023-05-10T14:02:09;5.40;;;4.40;;
20758;SDS011;10539;53.686;9.158;2023-05-10T14:04:37;5.70;;;4.47;;
20758;SDS011;10539;53.686;9.158;2023-05-10T14:07:02;5.40;;;4.37;;
20758;SDS011;10539;53.686;9.158;2023-05-10T14:09:29;5.23;;;4.10;;
20758;SDS011;10539;53.686;9.158;2023-05-10T14:11:55;4.13;;;3.33;;
20758;SDS011;10539;53.686;9.158;2023-05-10T14:14:21;4.77;;;4.13;;
20758;SDS011;10539;53.686;9.158;2023-05-10T14:16:47;5.53;;;4.10;;
20758;SDS011;10539;53.686;9.158;2023-05-10T14:19:13;6.60;;;4.10;;
20758;SDS011;10539;53.686;9.158;2023-05-10T14:21:38;6.03;;;4.40;;
20758;SDS011;10539;53.686;9.158;2023-05-10T14:24:04;5.37;;;4.50;;
20758;SDS011;10539;53.686;9.158;2023-05-10T14:26:32;5.83;;;4.40;;
20758;SDS011;10539;53.686;9.158;2023-05-10T14:28:59;4.90;;;4.40;;
20758;SDS011;10539;53.686;9.158;2023-05-10T14:31:25;4.23;;;3.50;;
20758;SDS011;10539;53.686;9.158;2023-05-10T14:33:51;3.50;;;3.17;;
20758;SDS011;10539;53.686;9.158;2023-05-10T14:36:17;3.77;;;3.40;;
20758;SDS011;10539;53.686;9.158;2023-05-10T14:38:43;3.63;;;3.20;;
20758;SDS011;10539;53.686;9.158;2023-05-10T14:41:08;3.10;;;2.80;;
20758;SDS011;10539;53.686;9.158;2023-05-10T14:43:39;1.90;;;1.80;;
20758;SDS011;10539;53.686;9.158;2023-05-10T14:46:04;4.47;;;2.50;;
20758;SDS011;10539;53.686;9.158;2023-05-10T14:48:30;3.30;;;2.57;;
20758;SDS011;10539;53.686;9.158;2023-05-10T14:50:56;3.10;;;2.80;;
20758;SDS011;10539;53.686;9.158;2023-05-10T14:53:22;4.67;;;3.53;;
20758;SDS011;10539;53.686;9.158;2023-05-10T14:55:48;2.93;;;2.63;;
20758;SDS011;10539;53.686;9.158;2023-05-10T14:58:13;2.50;;;2.30;;
20758;SDS011;10539;53.686;9.158;2023-05-10T15:00:40;2.00;;;1.90;;
20758;SDS011;10539;53.686;9.158;2023-05-10T15:03:06;2.43;;;2.17;;
20758;SDS011;10539;53.686;9.158;2023-05-10T15:05:31;3.83;;;2.40;;
20758;SDS011;10539;53.686;9.158;2023-05-10T15:07:57;2.60;;;2.40;;
20758;SDS011;10539;53.686;9.158;2023-05-10T15:10:23;3.00;;;2.70;;
20758;SDS011;10539;53.686;9.158;2023-05-10T15:12:49;5.50;;;4.63;;